sensor_id;sensor_type;location;lat;lon;timestamp;P1;durP1;ratioP1;P2;durP2;ratioP2
18125;SDS011;53956;52.442;13.284;2023-06-04T00:01:57;4.15;;;2.10;;
18125;SDS011;53956;52.442;13.284;2023-06-04T00:04:25;3.55;;;2.20;;
18125;SDS011;53956;52.442;13.284;2023-06-04T00:06:52;3.50;;;2.60;;
18125;SDS011;53956;52.442;13.284;2023-06-04T00:09:21;3.95;;;2.40;;
18125;SDS011;53956;52.442;13.284;2023-06-04T00:11:48;3.83;;;2.25;;
18125;SDS011;53956;52.442;13.284;2023-06-04T00:14:14;4.85;;;2.65;;
18125;SDS011;53956;52.442;13.284;2023-06-04T00:16:41;5.07;;;2.50;;
18125;SDS011;53956;52.442;13.284;2023-06-04T00:19:08;3.78;;;2.25;;
18125;SDS011;53956;52.442;13.284;2023-06-04T00:21:35;4.82;;;2.50;;
18125;SDS011;53956;52.442;13.284;2023-06-04T00:24:01;3.90;;;2.85;;
18125;SDS011;53956;52.442;13.284;2023-06-04T00:26:29;6.10;;;2.53;;
18125;SDS011;53956;52.442;13.284;2023-06-04T00:28:56;4.82;;;2.90;;
18125;SDS011;53956;52.442;13.284;2023-06-04T00:31:23;4.55;;;3.15;;
18125;SDS011;53956;52.442;13.284;2023-06-04T00:33:50;4.68;;;3.20;;
18125;SDS011;53956;52.442;13.284;2023-06-04T00:36:16;6.22;;;3.00;;
18125;SDS011;53956;52.442;13.284;2023-06-04T00:38:43;5.18;;;2.97;;
18125;SDS011;53956;52.442;13.284;2023-06-04T00:41:10;4.82;;;3.20;;
18125;SDS011;53956;52.442;13.284;2023-06-04T00:43:38;3.80;;;2.58;;
18125;SDS011;53956;52.442;13.284;2023-06-04T00:46:05;3.85;;;2.78;;
18125;SDS011;53956;52.442;13.284;2023-06-04T00:48:33;4.85;;;2.70;;
18125;SDS011;53956;52.442;13.284;2023-06-04T00:51:01;5.05;;;2.60;;
18125;SDS011;53956;52.442;13.284;2023-06-04T00:53:29;8.35;;;2.85;;
18125;SDS011;53956;52.442;13.284;2023-06-04T00:55:56;6.00;;;2.60;;
18125;SDS011;53956;52.442;13.284;2023-06-04T00:58:22;6.95;;;2.80;;
18125;SDS011;53956;52.442;13.284;2023-06-04T01:00:52;4.45;;;2.70;;
18125;SDS011;53956;52.442;13.284;2023-06-04T01:03:23;4.78;;;2.70;;
18125;SDS011;53956;52.442;13.284;2023-06-04T01:05:55;4.40;;;2.53;;
18125;SDS011;53956;52.442;13.284;2023-06-04T01:08:26;6.00;;;2.67;;
18125;SDS011;53956;52.442;13.284;2023-06-04T01:10:54;6.07;;;2.42;;
18125;SDS011;53956;52.442;13.284;2023-06-04T01:13:21;4.75;;;2.70;;
18125;SDS011;53956;52.442;13.284;2023-06-04T01:15:48;3.83;;;2.60;;
18125;SDS011;53956;52.442;13.284;2023-06-04T01:18:19;3.80;;;2.55;;
18125;SDS011;53956;52.442;13.284;2023-06-04T01:20:53;5.38;;;2.60;;
18125;SDS011;53956;52.442;13.284;2023-06-04T01:23:25;3.40;;;2.70;;
18125;SDS011;53956;52.442;13.284;2023-06-04T01:25:59;4.30;;;2.60;;
18125;SDS011;53956;52.442;13.284;2023-06-04T01:28:28;4.72;;;2.60;;
18125;SDS011;53956;52.442;13.284;2023-06-04T01:30:56;5.00;;;3.05;;
18125;SDS011;53956;52.442;13.284;2023-06-04T01:33:27;4.95;;;2.72;;
18125;SDS011;53956;52.442;13.284;2023-06-04T01:35:54;5.87;;;2.73;;
18125;SDS011;53956;52.442;13.284;2023-06-04T01:38:21;3.75;;;2.50;;
18125;SDS011;53956;52.442;13.284;2023-06-04T01:40:48;4.03;;;2.90;;
18125;SDS011;53956;52.442;13.284;2023-06-04T01:43:15;5.38;;;2.60;;
18125;SDS011;53956;52.442;13.284;2023-06-04T01:45:42;4.13;;;2.63;;
18125;SDS011;53956;52.442;13.284;2023-06-04T01:48:09;5.30;;;2.42;;
18125;SDS011;53956;52.442;13.284;2023-06-04T01:50:37;3.63;;;2.60;;
18125;SDS011;53956;52.442;13.284;2023-06-04T01:53:04;4.60;;;2.40;;
18125;SDS011;53956;52.442;13.284;2023-06-04T01:55:31;6.25;;;2.60;;
18125;SDS011;53956;52.442;13.284;2023-06-04T01:57:59;9.48;;;2.70;;
18125;SDS011;53956;52.442;13.284;2023-06-04T02:00:26;6.03;;;2.63;;
18125;SDS011;53956;52.442;13.284;2023-06-04T02:02:53;4.13;;;2.37;;
18125;SDS011;53956;52.442;13.284;2023-06-04T02:05:20;4.05;;;2.40;;
18125;SDS011;53956;52.442;13.284;2023-06-04T02:07:49;3.42;;;2.22;;
18125;SDS011;53956;52.442;13.284;2023-06-04T02:10:17;3.33;;;2.38;;
18125;SDS011;53956;52.442;13.284;2023-06-04T02:12:52;3.17;;;2.20;;
18125;SDS011;53956;52.442;13.284;2023-06-04T02:15:22;6.73;;;2.40;;
18125;SDS011;53956;52.442;13.284;2023-06-04T02:17:49;2.93;;;2.20;;
18125;SDS011;53956;52.442;13.284;2023-06-04T02:20:16;3.35;;;2.38;;
18125;SDS011;53956;52.442;13.284;2023-06-04T02:22:43;4.20;;;2.40;;
18125;SDS011;53956;52.442;13.284;2023-06-04T02:25:11;4.18;;;2.67;;
18125;SDS011;53956;52.442;13.284;2023-06-04T02:27:38;3.57;;;2.40;;
18125;SDS011;53956;52.442;13.284;2023-06-04T02:30:05;4.30;;;2.40;;
18125;SDS011;53956;52.442;13.284;2023-06-04T02:32:33;4.93;;;2.80;;
18125;SDS011;53956;52.442;13.284;2023-06-04T02:35:01;3.75;;;2.28;;
18125;SDS011;53956;52.442;13.284;2023-06-04T02:37:28;3.27;;;2.40;;
18125;SDS011;53956;52.442;13.284;2023-06-04T02:39:55;3.67;;;2.50;;
18125;SDS011;53956;52.442;13.284;2023-06-04T02:42:23;11.70;;;2.60;;
18125;SDS011;53956;52.442;13.284;2023-06-04T02:44:51;4.83;;;2.47;;
18125;SDS011;53956;52.442;13.284;2023-06-04T02:47:17;2.90;;;2.40;;
18125;SDS011;53956;52.442;13.284;2023-06-04T02:49:45;6.27;;;2.40;;
18125;SDS011;53956;52.442;13.284;2023-06-04T02:52:11;3.67;;;2.40;;
18125;SDS011;53956;52.442;13.284;2023-06-04T02:54:38;4.33;;;2.70;;
18125;SDS011;53956;52.442;13.284;2023-06-04T02:57:05;5.93;;;2.97;;
18125;SDS011;53956;52.442;13.284;2023-06-04T02:59:34;3.17;;;2.43;;
18125;SDS011;53956;52.442;13.284;2023-06-04T03:02:03;5.03;;;2.73;;
18125;SDS011;53956;52.442;13.284;2023-06-04T03:04:30;3.63;;;2.40;;
18125;SDS011;53956;52.442;13.284;2023-06-04T03:07:00;3.33;;;2.40;;
18125;SDS011;53956;52.442;13.284;2023-06-04T03:09:27;6.53;;;3.00;;
18125;SDS011;53956;52.442;13.284;2023-06-04T03:11:54;4.13;;;2.63;;
18125;SDS011;53956;52.442;13.284;2023-06-04T03:14:20;5.57;;;2.40;;
18125;SDS011;53956;52.442;13.284;2023-06-04T03:16:50;4.27;;;2.63;;
18125;SDS011;53956;52.442;13.284;2023-06-04T03:19:17;4.37;;;2.67;;
18125;SDS011;53956;52.442;13.284;2023-06-04T03:21:44;5.37;;;2.70;;
18125;SDS011;53956;52.442;13.284;2023-06-04T03:24:12;8.00;;;2.67;;
18125;SDS011;53956;52.442;13.284;2023-06-04T03:26:38;5.33;;;2.80;;
18125;SDS011;53956;52.442;13.284;2023-06-04T03:29:06;5.13;;;2.77;;
18125;SDS011;53956;52.442;13.284;2023-06-04T03:31:33;6.47;;;3.40;;
18125;SDS011;53956;52.442;13.284;2023-06-04T03:34:01;6.27;;;3.23;;
18125;SDS011;53956;52.442;13.284;2023-06-04T03:36:29;4.73;;;2.80;;
18125;SDS011;53956;52.442;13.284;2023-06-04T03:38:58;4.80;;;2.80;;
18125;SDS011;53956;52.442;13.284;2023-06-04T03:41:25;3.60;;;2.43;;
18125;SDS011;53956;52.442;13.284;2023-06-04T03:43:52;4.87;;;3.10;;
18125;SDS011;53956;52.442;13.284;2023-06-04T03:46:20;5.77;;;3.00;;
18125;SDS011;53956;52.442;13.284;2023-06-04T03:48:47;4.50;;;2.60;;
18125;SDS011;53956;52.442;13.284;2023-06-04T03:51:15;3.37;;;2.60;;
18125;SDS011;53956;52.442;13.284;2023-06-04T03:53:44;4.30;;;2.53;;
18125;SDS011;53956;52.442;13.284;2023-06-04T03:56:11;3.63;;;2.63;;
18125;SDS011;53956;52.442;13.284;2023-06-04T03:58:38;6.20;;;2.67;;
18125;SDS011;53956;52.442;13.284;2023-06-04T04:01:05;4.85;;;2.88;;
18125;SDS011;53956;52.442;13.284;2023-06-04T04:03:36;4.30;;;2.53;;
18125;SDS011;53956;52.442;13.284;2023-06-04T04:06:04;3.07;;;2.50;;
18125;SDS011;53956;52.442;13.284;2023-06-04T04:08:32;3.55;;;2.80;;
18125;SDS011;53956;52.442;13.284;2023-06-04T04:10:59;5.32;;;2.80;;
18125;SDS011;53956;52.442;13.284;2023-06-04T04:13:27;3.87;;;2.80;;
18125;SDS011;53956;52.442;13.284;2023-06-04T04:15:53;3.80;;;2.63;;
18125;SDS011;53956;52.442;13.284;2023-06-04T04:18:21;4.15;;;2.88;;
18125;SDS011;53956;52.442;13.284;2023-06-04T04:20:48;3.67;;;2.50;;
18125;SDS011;53956;52.442;13.284;2023-06-04T04:23:15;4.27;;;2.73;;
18125;SDS011;53956;52.442;13.284;2023-06-04T04:25:45;5.03;;;2.70;;
18125;SDS011;53956;52.442;13.284;2023-06-04T04:28:12;4.80;;;2.80;;
18125;SDS011;53956;52.442;13.284;2023-06-04T04:30:39;4.53;;;2.60;;
18125;SDS011;53956;52.442;13.284;2023-06-04T04:33:08;3.95;;;2.63;;
18125;SDS011;53956;52.442;13.284;2023-06-04T04:35:41;6.30;;;2.90;;
18125;SDS011;53956;52.442;13.284;2023-06-04T04:38:09;6.00;;;2.80;;
18125;SDS011;53956;52.442;13.284;2023-06-04T04:40:42;3.80;;;2.63;;
18125;SDS011;53956;52.442;13.284;2023-06-04T04:43:13;4.32;;;2.60;;
18125;SDS011;53956;52.442;13.284;2023-06-04T04:45:40;3.30;;;2.40;;
18125;SDS011;53956;52.442;13.284;2023-06-04T04:48:09;2.78;;;2.45;;
18125;SDS011;53956;52.442;13.284;2023-06-04T04:50:36;4.28;;;2.50;;
18125;SDS011;53956;52.442;13.284;2023-06-04T04:53:04;4.50;;;2.30;;
18125;SDS011;53956;52.442;13.284;2023-06-04T04:55:32;3.70;;;2.42;;
18125;SDS011;53956;52.442;13.284;2023-06-04T04:57:59;3.53;;;2.50;;
18125;SDS011;53956;52.442;13.284;2023-06-04T05:00:28;3.90;;;2.08;;
18125;SDS011;53956;52.442;13.284;2023-06-04T05:02:56;3.55;;;2.15;;
18125;SDS011;53956;52.442;13.284;2023-06-04T05:05:23;6.97;;;2.33;;
18125;SDS011;53956;52.442;13.284;2023-06-04T05:07:50;3.25;;;2.30;;
18125;SDS011;53956;52.442;13.284;2023-06-04T05:10:20;4.72;;;2.20;;
18125;SDS011;53956;52.442;13.284;2023-06-04T05:12:51;4.10;;;2.30;;
18125;SDS011;53956;52.442;13.284;2023-06-04T05:15:19;4.47;;;1.98;;
18125;SDS011;53956;52.442;13.284;2023-06-04T05:17:48;2.83;;;1.77;;
18125;SDS011;53956;52.442;13.284;2023-06-04T05:20:17;6.85;;;2.28;;
18125;SDS011;53956;52.442;13.284;2023-06-04T05:22:46;4.85;;;1.70;;
18125;SDS011;53956;52.442;13.284;2023-06-04T05:25:15;4.60;;;1.80;;
18125;SDS011;53956;52.442;13.284;2023-06-04T05:27:42;5.07;;;1.63;;
18125;SDS011;53956;52.442;13.284;2023-06-04T05:30:11;4.45;;;1.80;;
18125;SDS011;53956;52.442;13.284;2023-06-04T05:32:38;2.97;;;1.90;;
18125;SDS011;53956;52.442;13.284;2023-06-04T05:35:09;3.88;;;1.90;;
18125;SDS011;53956;52.442;13.284;2023-06-04T05:37:39;3.67;;;1.77;;
18125;SDS011;53956;52.442;13.284;2023-06-04T05:40:08;4.90;;;1.58;;
18125;SDS011;53956;52.442;13.284;2023-06-04T05:42:36;3.50;;;1.70;;
18125;SDS011;53956;52.442;13.284;2023-06-04T05:45:03;13.52;;;2.28;;
18125;SDS011;53956;52.442;13.284;2023-06-04T05:47:33;6.13;;;2.08;;
18125;SDS011;53956;52.442;13.284;2023-06-04T05:50:00;3.78;;;1.63;;
18125;SDS011;53956;52.442;13.284;2023-06-04T05:52:31;2.92;;;1.70;;
18125;SDS011;53956;52.442;13.284;2023-06-04T05:54:58;3.05;;;1.80;;
18125;SDS011;53956;52.442;13.284;2023-06-04T05:57:25;3.47;;;1.80;;
18125;SDS011;53956;52.442;13.284;2023-06-04T05:59:52;2.90;;;1.58;;
18125;SDS011;53956;52.442;13.284;2023-06-04T06:02:19;3.95;;;1.77;;
18125;SDS011;53956;52.442;13.284;2023-06-04T06:04:46;2.67;;;1.63;;
18125;SDS011;53956;52.442;13.284;2023-06-04T06:07:13;3.00;;;1.70;;
18125;SDS011;53956;52.442;13.284;2023-06-04T06:09:41;4.65;;;1.80;;
18125;SDS011;53956;52.442;13.284;2023-06-04T06:12:08;4.35;;;1.50;;
18125;SDS011;53956;52.442;13.284;2023-06-04T06:14:36;3.13;;;1.77;;
18125;SDS011;53956;52.442;13.284;2023-06-04T06:17:03;3.55;;;1.70;;
18125;SDS011;53956;52.442;13.284;2023-06-04T06:19:31;2.33;;;1.48;;
18125;SDS011;53956;52.442;13.284;2023-06-04T06:21:58;4.43;;;1.38;;
18125;SDS011;53956;52.442;13.284;2023-06-04T06:24:27;3.38;;;1.50;;
18125;SDS011;53956;52.442;13.284;2023-06-04T06:26:56;6.00;;;1.58;;
18125;SDS011;53956;52.442;13.284;2023-06-04T06:29:23;4.93;;;1.40;;
18125;SDS011;53956;52.442;13.284;2023-06-04T06:31:51;2.22;;;1.40;;
18125;SDS011;53956;52.442;13.284;2023-06-04T06:34:17;2.97;;;1.30;;
18125;SDS011;53956;52.442;13.284;2023-06-04T06:36:44;1.70;;;1.20;;
18125;SDS011;53956;52.442;13.284;2023-06-04T06:39:12;6.00;;;1.70;;
18125;SDS011;53956;52.442;13.284;2023-06-04T06:41:39;3.25;;;1.40;;
18125;SDS011;53956;52.442;13.284;2023-06-04T06:44:10;3.33;;;1.45;;
18125;SDS011;53956;52.442;13.284;2023-06-04T06:46:37;1.73;;;1.20;;
18125;SDS011;53956;52.442;13.284;2023-06-04T06:49:03;2.67;;;1.50;;
18125;SDS011;53956;52.442;13.284;2023-06-04T06:51:30;2.55;;;1.40;;
18125;SDS011;53956;52.442;13.284;2023-06-04T06:53:57;2.10;;;1.42;;
18125;SDS011;53956;52.442;13.284;2023-06-04T06:56:24;4.15;;;1.42;;
18125;SDS011;53956;52.442;13.284;2023-06-04T06:58:51;7.63;;;1.20;;
18125;SDS011;53956;52.442;13.284;2023-06-04T07:01:20;4.45;;;1.30;;
18125;SDS011;53956;52.442;13.284;2023-06-04T07:03:47;4.20;;;1.15;;
18125;SDS011;53956;52.442;13.284;2023-06-04T07:06:15;4.53;;;1.13;;
18125;SDS011;53956;52.442;13.284;2023-06-04T07:08:42;3.05;;;1.27;;
18125;SDS011;53956;52.442;13.284;2023-06-04T07:11:09;2.50;;;1.20;;
18125;SDS011;53956;52.442;13.284;2023-06-04T07:13:37;3.80;;;1.30;;
18125;SDS011;53956;52.442;13.284;2023-06-04T07:16:04;3.30;;;1.00;;
18125;SDS011;53956;52.442;13.284;2023-06-04T07:18:32;3.80;;;1.17;;
18125;SDS011;53956;52.442;13.284;2023-06-04T07:20:59;2.90;;;1.50;;
18125;SDS011;53956;52.442;13.284;2023-06-04T07:23:26;6.05;;;1.40;;
18125;SDS011;53956;52.442;13.284;2023-06-04T07:25:52;3.10;;;1.20;;
18125;SDS011;53956;52.442;13.284;2023-06-04T07:28:19;6.07;;;0.90;;
18125;SDS011;53956;52.442;13.284;2023-06-04T07:30:46;2.90;;;1.13;;
18125;SDS011;53956;52.442;13.284;2023-06-04T07:33:13;4.65;;;1.20;;
18125;SDS011;53956;52.442;13.284;2023-06-04T07:35:41;3.28;;;1.15;;
18125;SDS011;53956;52.442;13.284;2023-06-04T07:38:07;1.48;;;1.00;;
18125;SDS011;53956;52.442;13.284;2023-06-04T07:40:34;1.60;;;0.95;;
18125;SDS011;53956;52.442;13.284;2023-06-04T07:43:01;2.75;;;1.00;;
18125;SDS011;53956;52.442;13.284;2023-06-04T07:45:27;2.45;;;0.90;;
18125;SDS011;53956;52.442;13.284;2023-06-04T07:47:55;4.82;;;1.00;;
18125;SDS011;53956;52.442;13.284;2023-06-04T07:50:22;1.65;;;1.00;;
18125;SDS011;53956;52.442;13.284;2023-06-04T07:52:50;3.30;;;1.35;;
18125;SDS011;53956;52.442;13.284;2023-06-04T07:55:17;4.07;;;1.10;;
18125;SDS011;53956;52.442;13.284;2023-06-04T07:57:43;2.05;;;1.05;;
18125;SDS011;53956;52.442;13.284;2023-06-04T08:00:10;3.40;;;1.40;;
18125;SDS011;53956;52.442;13.284;2023-06-04T08:02:39;7.05;;;1.17;;
18125;SDS011;53956;52.442;13.284;2023-06-04T08:05:06;3.65;;;1.00;;
18125;SDS011;53956;52.442;13.284;2023-06-04T08:07:33;2.67;;;1.00;;
18125;SDS011;53956;52.442;13.284;2023-06-04T08:10:01;2.50;;;1.00;;
18125;SDS011;53956;52.442;13.284;2023-06-04T08:12:28;2.00;;;0.90;;
18125;SDS011;53956;52.442;13.284;2023-06-04T08:14:54;1.60;;;1.00;;
18125;SDS011;53956;52.442;13.284;2023-06-04T08:17:22;4.13;;;1.10;;
18125;SDS011;53956;52.442;13.284;2023-06-04T08:19:49;2.22;;;1.20;;
18125;SDS011;53956;52.442;13.284;2023-06-04T08:22:16;1.98;;;1.00;;
18125;SDS011;53956;52.442;13.284;2023-06-04T08:24:42;3.88;;;1.25;;
18125;SDS011;53956;52.442;13.284;2023-06-04T08:27:11;3.45;;;1.40;;
18125;SDS011;53956;52.442;13.284;2023-06-04T08:29:38;3.88;;;1.20;;
18125;SDS011;53956;52.442;13.284;2023-06-04T08:32:05;3.58;;;1.30;;
18125;SDS011;53956;52.442;13.284;2023-06-04T08:34:32;4.25;;;1.27;;
18125;SDS011;53956;52.442;13.284;2023-06-04T08:36:59;2.63;;;1.10;;
18125;SDS011;53956;52.442;13.284;2023-06-04T08:39:26;2.00;;;0.95;;
18125;SDS011;53956;52.442;13.284;2023-06-04T08:41:53;1.48;;;1.00;;
18125;SDS011;53956;52.442;13.284;2023-06-04T08:44:26;3.22;;;1.15;;
18125;SDS011;53956;52.442;13.284;2023-06-04T08:46:53;1.20;;;1.10;;
18125;SDS011;53956;52.442;13.284;2023-06-04T08:49:23;2.90;;;1.10;;
18125;SDS011;53956;52.442;13.284;2023-06-04T08:51:51;1.67;;;1.10;;
18125;SDS011;53956;52.442;13.284;2023-06-04T08:54:18;2.03;;;1.10;;
18125;SDS011;53956;52.442;13.284;2023-06-04T08:56:45;3.38;;;1.23;;
18125;SDS011;53956;52.442;13.284;2023-06-04T08:59:12;3.17;;;1.10;;
18125;SDS011;53956;52.442;13.284;2023-06-04T09:01:41;1.83;;;1.13;;
18125;SDS011;53956;52.442;13.284;2023-06-04T09:04:10;3.00;;;1.00;;
18125;SDS011;53956;52.442;13.284;2023-06-04T09:06:37;3.20;;;1.00;;
18125;SDS011;53956;52.442;13.284;2023-06-04T09:09:05;3.20;;;1.20;;
18125;SDS011;53956;52.442;13.284;2023-06-04T09:11:36;4.97;;;1.30;;
18125;SDS011;53956;52.442;13.284;2023-06-04T09:14:06;5.05;;;1.08;;
18125;SDS011;53956;52.442;13.284;2023-06-04T09:16:43;2.67;;;1.40;;
18125;SDS011;53956;52.442;13.284;2023-06-04T09:19:10;1.48;;;1.10;;
18125;SDS011;53956;52.442;13.284;2023-06-04T09:21:45;3.35;;;1.20;;
18125;SDS011;53956;52.442;13.284;2023-06-04T09:24:16;4.35;;;1.20;;
18125;SDS011;53956;52.442;13.284;2023-06-04T09:26:42;3.95;;;1.10;;
18125;SDS011;53956;52.442;13.284;2023-06-04T09:29:10;1.30;;;1.10;;
18125;SDS011;53956;52.442;13.284;2023-06-04T09:31:36;2.63;;;1.20;;
18125;SDS011;53956;52.442;13.284;2023-06-04T09:34:06;2.03;;;1.10;;
18125;SDS011;53956;52.442;13.284;2023-06-04T09:36:33;2.83;;;0.93;;
18125;SDS011;53956;52.442;13.284;2023-06-04T09:39:01;2.58;;;1.10;;
18125;SDS011;53956;52.442;13.284;2023-06-04T09:41:28;3.97;;;1.23;;
18125;SDS011;53956;52.442;13.284;2023-06-04T09:44:01;2.53;;;1.20;;
18125;SDS011;53956;52.442;13.284;2023-06-04T09:46:30;3.13;;;1.10;;
18125;SDS011;53956;52.442;13.284;2023-06-04T09:49:00;5.72;;;1.33;;
18125;SDS011;53956;52.442;13.284;2023-06-04T09:51:30;2.80;;;1.13;;
18125;SDS011;53956;52.442;13.284;2023-06-04T09:53:58;3.03;;;1.20;;
18125;SDS011;53956;52.442;13.284;2023-06-04T09:56:26;2.95;;;1.20;;
18125;SDS011;53956;52.442;13.284;2023-06-04T09:58:54;4.18;;;1.40;;
18125;SDS011;53956;52.442;13.284;2023-06-04T10:01:22;4.53;;;1.50;;
18125;SDS011;53956;52.442;13.284;2023-06-04T10:03:50;2.10;;;1.30;;
18125;SDS011;53956;52.442;13.284;2023-06-04T10:06:18;2.80;;;1.40;;
18125;SDS011;53956;52.442;13.284;2023-06-04T10:08:47;1.90;;;1.10;;
18125;SDS011;53956;52.442;13.284;2023-06-04T10:11:14;4.53;;;1.30;;
18125;SDS011;53956;52.442;13.284;2023-06-04T10:13:45;2.95;;;1.17;;
18125;SDS011;53956;52.442;13.284;2023-06-04T10:16:16;1.98;;;1.20;;
18125;SDS011;53956;52.442;13.284;2023-06-04T10:18:45;3.20;;;1.30;;
18125;SDS011;53956;52.442;13.284;2023-06-04T10:21:14;3.38;;;1.30;;
18125;SDS011;53956;52.442;13.284;2023-06-04T10:23:43;2.30;;;1.10;;
18125;SDS011;53956;52.442;13.284;2023-06-04T10:26:13;2.28;;;1.17;;
18125;SDS011;53956;52.442;13.284;2023-06-04T10:28:41;2.40;;;1.33;;
18125;SDS011;53956;52.442;13.284;2023-06-04T10:31:08;4.38;;;1.20;;
18125;SDS011;53956;52.442;13.284;2023-06-04T10:33:35;2.63;;;1.10;;
18125;SDS011;53956;52.442;13.284;2023-06-04T10:36:15;3.45;;;1.30;;
18125;SDS011;53956;52.442;13.284;2023-06-04T10:38:44;6.00;;;1.33;;
18125;SDS011;53956;52.442;13.284;2023-06-04T10:41:14;2.50;;;1.48;;
18125;SDS011;53956;52.442;13.284;2023-06-04T10:43:42;2.67;;;1.17;;
18125;SDS011;53956;52.442;13.284;2023-06-04T10:46:12;3.63;;;1.30;;
18125;SDS011;53956;52.442;13.284;2023-06-04T10:48:46;2.65;;;1.20;;
18125;SDS011;53956;52.442;13.284;2023-06-04T10:51:16;3.72;;;1.40;;
18125;SDS011;53956;52.442;13.284;2023-06-04T10:53:54;5.45;;;1.38;;
18125;SDS011;53956;52.442;13.284;2023-06-04T10:56:25;2.22;;;1.30;;
18125;SDS011;53956;52.442;13.284;2023-06-04T10:58:52;3.42;;;1.48;;
18125;SDS011;53956;52.442;13.284;2023-06-04T11:01:22;2.00;;;1.30;;
18125;SDS011;53956;52.442;13.284;2023-06-04T11:03:50;1.92;;;1.27;;
18125;SDS011;53956;52.442;13.284;2023-06-04T11:06:16;1.67;;;1.17;;
18125;SDS011;53956;52.442;13.284;2023-06-04T11:08:43;2.28;;;1.30;;
18125;SDS011;53956;52.442;13.284;2023-06-04T11:11:11;4.20;;;1.63;;
18125;SDS011;53956;52.442;13.284;2023-06-04T11:13:39;6.65;;;1.25;;
18125;SDS011;53956;52.442;13.284;2023-06-04T11:16:16;3.58;;;1.30;;
18125;SDS011;53956;52.442;13.284;2023-06-04T11:18:43;4.90;;;1.92;;
18125;SDS011;53956;52.442;13.284;2023-06-04T11:21:10;2.28;;;1.40;;
18125;SDS011;53956;52.442;13.284;2023-06-04T11:23:39;4.65;;;1.15;;
18125;SDS011;53956;52.442;13.284;2023-06-04T11:26:06;2.08;;;1.38;;
18125;SDS011;53956;52.442;13.284;2023-06-04T11:28:33;1.70;;;1.30;;
18125;SDS011;53956;52.442;13.284;2023-06-04T11:31:01;3.40;;;1.33;;
18125;SDS011;53956;52.442;13.284;2023-06-04T11:33:30;3.95;;;1.30;;
18125;SDS011;53956;52.442;13.284;2023-06-04T11:36:07;1.83;;;1.17;;
18125;SDS011;53956;52.442;13.284;2023-06-04T11:38:34;2.53;;;1.20;;
18125;SDS011;53956;52.442;13.284;2023-06-04T11:41:01;3.33;;;1.30;;
18125;SDS011;53956;52.442;13.284;2023-06-04T11:43:30;2.35;;;1.30;;
18125;SDS011;53956;52.442;13.284;2023-06-04T11:45:58;2.42;;;1.15;;
18125;SDS011;53956;52.442;13.284;2023-06-04T11:48:26;4.50;;;1.20;;
18125;SDS011;53956;52.442;13.284;2023-06-04T11:50:55;1.92;;;1.23;;
18125;SDS011;53956;52.442;13.284;2023-06-04T11:53:22;2.13;;;1.17;;
18125;SDS011;53956;52.442;13.284;2023-06-04T11:55:49;5.00;;;1.40;;
18125;SDS011;53956;52.442;13.284;2023-06-04T11:58:15;2.25;;;1.30;;
18125;SDS011;53956;52.442;13.284;2023-06-04T12:00:42;3.25;;;1.45;;
18125;SDS011;53956;52.442;13.284;2023-06-04T12:03:09;2.60;;;1.48;;
18125;SDS011;53956;52.442;13.284;2023-06-04T12:05:37;4.40;;;1.25;;
18125;SDS011;53956;52.442;13.284;2023-06-04T12:08:04;1.95;;;1.30;;
18125;SDS011;53956;52.442;13.284;2023-06-04T12:10:36;2.25;;;1.38;;
18125;SDS011;53956;52.442;13.284;2023-06-04T12:13:03;2.10;;;1.17;;
18125;SDS011;53956;52.442;13.284;2023-06-04T12:15:30;4.53;;;1.60;;
18125;SDS011;53956;52.442;13.284;2023-06-04T12:17:57;3.33;;;1.35;;
18125;SDS011;53956;52.442;13.284;2023-06-04T12:20:31;3.10;;;1.70;;
18125;SDS011;53956;52.442;13.284;2023-06-04T12:23:00;3.00;;;1.60;;
18125;SDS011;53956;52.442;13.284;2023-06-04T12:25:27;4.80;;;1.48;;
18125;SDS011;53956;52.442;13.284;2023-06-04T12:27:55;4.22;;;1.30;;
18125;SDS011;53956;52.442;13.284;2023-06-04T12:30:22;3.28;;;1.30;;
18125;SDS011;53956;52.442;13.284;2023-06-04T12:32:49;3.67;;;1.60;;
18125;SDS011;53956;52.442;13.284;2023-06-04T12:35:16;4.55;;;1.25;;
18125;SDS011;53956;52.442;13.284;2023-06-04T12:37:43;3.97;;;1.23;;
18125;SDS011;53956;52.442;13.284;2023-06-04T12:40:11;2.60;;;1.35;;
18125;SDS011;53956;52.442;13.284;2023-06-04T12:42:38;2.42;;;1.30;;
18125;SDS011;53956;52.442;13.284;2023-06-04T12:45:05;7.30;;;1.83;;
18125;SDS011;53956;52.442;13.284;2023-06-04T12:47:33;3.25;;;1.70;;
18125;SDS011;53956;52.442;13.284;2023-06-04T12:49:59;3.03;;;1.40;;
18125;SDS011;53956;52.442;13.284;2023-06-04T12:52:26;3.70;;;1.33;;
18125;SDS011;53956;52.442;13.284;2023-06-04T12:54:53;2.80;;;1.23;;
18125;SDS011;53956;52.442;13.284;2023-06-04T12:57:21;3.47;;;1.40;;
18125;SDS011;53956;52.442;13.284;2023-06-04T12:59:47;2.75;;;1.30;;
18125;SDS011;53956;52.442;13.284;2023-06-04T13:02:14;1.90;;;1.30;;
18125;SDS011;53956;52.442;13.284;2023-06-04T13:04:41;3.63;;;1.30;;
18125;SDS011;53956;52.442;13.284;2023-06-04T13:07:09;2.22;;;1.40;;
18125;SDS011;53956;52.442;13.284;2023-06-04T13:09:36;7.97;;;1.73;;
18125;SDS011;53956;52.442;13.284;2023-06-04T13:12:02;6.10;;;1.30;;
18125;SDS011;53956;52.442;13.284;2023-06-04T13:14:32;3.97;;;1.95;;
18125;SDS011;53956;52.442;13.284;2023-06-04T13:16:59;3.00;;;1.40;;
18125;SDS011;53956;52.442;13.284;2023-06-04T13:19:26;2.97;;;1.50;;
18125;SDS011;53956;52.442;13.284;2023-06-04T13:21:52;1.73;;;1.23;;
18125;SDS011;53956;52.442;13.284;2023-06-04T13:24:19;4.47;;;1.60;;
18125;SDS011;53956;52.442;13.284;2023-06-04T13:26:46;5.18;;;1.42;;
18125;SDS011;53956;52.442;13.284;2023-06-04T13:29:12;5.95;;;1.38;;
18125;SDS011;53956;52.442;13.284;2023-06-04T13:31:42;5.53;;;1.30;;
18125;SDS011;53956;52.442;13.284;2023-06-04T13:34:09;2.30;;;1.40;;
18125;SDS011;53956;52.442;13.284;2023-06-04T13:36:35;4.07;;;1.52;;
18125;SDS011;53956;52.442;13.284;2023-06-04T13:39:03;2.30;;;1.40;;
18125;SDS011;53956;52.442;13.284;2023-06-04T13:41:31;6.13;;;1.75;;
18125;SDS011;53956;52.442;13.284;2023-06-04T13:43:57;3.17;;;1.35;;
18125;SDS011;53956;52.442;13.284;2023-06-04T13:46:24;6.03;;;1.40;;
18125;SDS011;53956;52.442;13.284;2023-06-04T13:48:52;3.58;;;1.55;;
18125;SDS011;53956;52.442;13.284;2023-06-04T13:51:18;3.45;;;1.58;;
18125;SDS011;53956;52.442;13.284;2023-06-04T13:53:45;2.53;;;1.70;;
18125;SDS011;53956;52.442;13.284;2023-06-04T13:56:12;4.18;;;1.33;;
18125;SDS011;53956;52.442;13.284;2023-06-04T13:58:38;3.10;;;1.80;;
18125;SDS011;53956;52.442;13.284;2023-06-04T14:01:05;3.05;;;1.48;;
18125;SDS011;53956;52.442;13.284;2023-06-04T14:03:32;2.38;;;1.40;;
18125;SDS011;53956;52.442;13.284;2023-06-04T14:06:00;2.75;;;1.40;;
18125;SDS011;53956;52.442;13.284;2023-06-04T14:08:27;3.80;;;1.80;;
18125;SDS011;53956;52.442;13.284;2023-06-04T14:10:53;3.80;;;1.50;;
18125;SDS011;53956;52.442;13.284;2023-06-04T14:13:21;2.33;;;1.60;;
18125;SDS011;53956;52.442;13.284;2023-06-04T14:15:48;3.00;;;1.40;;
18125;SDS011;53956;52.442;13.284;2023-06-04T14:18:15;4.65;;;1.70;;
18125;SDS011;53956;52.442;13.284;2023-06-04T14:20:42;2.42;;;1.50;;
18125;SDS011;53956;52.442;13.284;2023-06-04T14:23:11;3.55;;;1.52;;
18125;SDS011;53956;52.442;13.284;2023-06-04T14:25:37;4.25;;;1.58;;
18125;SDS011;53956;52.442;13.284;2023-06-04T14:28:04;3.45;;;1.40;;
18125;SDS011;53956;52.442;13.284;2023-06-04T14:30:31;4.28;;;1.58;;
18125;SDS011;53956;52.442;13.284;2023-06-04T14:32:57;5.18;;;1.70;;
18125;SDS011;53956;52.442;13.284;2023-06-04T14:35:24;2.38;;;1.55;;
18125;SDS011;53956;52.442;13.284;2023-06-04T14:37:51;5.32;;;1.65;;